sensor_id;sensor_type;location;lat;lon;timestamp;P1;durP1;ratioP1;P2;durP2;ratioP2
41927;SDS011;27616;51.420;6.788;2024-03-23T00:55:34;14.20;;;3.33;;
41927;SDS011;27616;51.420;6.788;2024-03-23T00:57:59;17.13;;;3.70;;
41927;SDS011;27616;51.420;6.788;2024-03-23T01:00:25;18.57;;;4.40;;
41927;SDS011;27616;51.420;6.788;2024-03-23T01:02:51;24.17;;;3.90;;
41927;SDS011;27616;51.420;6.788;2024-03-23T01:05:16;22.50;;;3.93;;
41927;SDS011;27616;51.420;6.788;2024-03-23T01:07:42;15.93;;;3.60;;
41927;SDS011;27616;51.420;6.788;2024-03-23T01:10:07;16.17;;;4.00;;
41927;SDS011;27616;51.420;6.788;2024-03-23T01:12:33;13.67;;;3.17;;
41927;SDS011;27616;51.420;6.788;2024-03-23T01:14:59;10.67;;;2.50;;
41927;SDS011;27616;51.420;6.788;2024-03-23T01:17:24;8.80;;;1.80;;
41927;SDS011;27616;51.420;6.788;2024-03-23T01:19:50;7.07;;;1.50;;
41927;SDS011;27616;51.420;6.788;2024-03-23T01:22:15;11.87;;;2.30;;
41927;SDS011;27616;51.420;6.788;2024-03-23T01:24:41;7.97;;;1.77;;
41927;SDS011;27616;51.420;6.788;2024-03-23T01:27:07;11.27;;;2.43;;
41927;SDS011;27616;51.420;6.788;2024-03-23T01:29:33;8.43;;;1.50;;
41927;SDS011;27616;51.420;6.788;2024-03-23T01:31:59;12.37;;;2.07;;
41927;SDS011;27616;51.420;6.788;2024-03-23T01:34:24;9.80;;;1.47;;
41927;SDS011;27616;51.420;6.788;2024-03-23T01:36:50;8.90;;;1.60;;
41927;SDS011;27616;51.420;6.788;2024-03-23T01:39:16;8.37;;;2.07;;
41927;SDS011;27616;51.420;6.788;2024-03-23T01:41:42;9.67;;;1.93;;
41927;SDS011;27616;51.420;6.788;2024-03-23T01:44:08;9.50;;;1.60;;
41927;SDS011;27616;51.420;6.788;2024-03-23T01:46:35;13.10;;;2.40;;
41927;SDS011;27616;51.420;6.788;2024-03-23T01:49:01;11.60;;;1.77;;
41927;SDS011;27616;51.420;6.788;2024-03-23T01:51:27;9.50;;;2.20;;
41927;SDS011;27616;51.420;6.788;2024-03-23T01:53:54;10.67;;;2.40;;
41927;SDS011;27616;51.420;6.788;2024-03-23T01:56:20;12.50;;;2.43;;
41927;SDS011;27616;51.420;6.788;2024-03-23T01:58:45;10.70;;;2.37;;
41927;SDS011;27616;51.420;6.788;2024-03-23T02:01:11;10.47;;;2.40;;
41927;SDS011;27616;51.420;6.788;2024-03-23T02:03:37;11.23;;;2.13;;
41927;SDS011;27616;51.420;6.788;2024-03-23T02:06:02;8.93;;;2.43;;
41927;SDS011;27616;51.420;6.788;2024-03-23T02:08:29;11.03;;;2.00;;
41927;SDS011;27616;51.420;6.788;2024-03-23T02:10:56;12.30;;;2.53;;
41927;SDS011;27616;51.420;6.788;2024-03-23T02:13:23;9.17;;;1.90;;
41927;SDS011;27616;51.420;6.788;2024-03-23T02:15:49;11.10;;;2.17;;
41927;SDS011;27616;51.420;6.788;2024-03-23T02:18:14;9.63;;;2.13;;
41927;SDS011;27616;51.420;6.788;2024-03-23T02:20:40;10.37;;;1.97;;
41927;SDS011;27616;51.420;6.788;2024-03-23T02:23:06;10.77;;;2.07;;
41927;SDS011;27616;51.420;6.788;2024-03-23T02:25:38;13.27;;;2.40;;
41927;SDS011;27616;51.420;6.788;2024-03-23T02:28:04;10.40;;;2.30;;
41927;SDS011;27616;51.420;6.788;2024-03-23T02:30:30;13.67;;;3.10;;
41927;SDS011;27616;51.420;6.788;2024-03-23T02:32:55;12.73;;;3.20;;
41927;SDS011;27616;51.420;6.788;2024-03-23T02:35:21;14.10;;;3.00;;
41927;SDS011;27616;51.420;6.788;2024-03-23T02:37:47;10.07;;;3.20;;
41927;SDS011;27616;51.420;6.788;2024-03-23T02:40:16;16.02;;;2.60;;
41927;SDS011;27616;51.420;6.788;2024-03-23T02:42:42;10.23;;;2.83;;
41927;SDS011;27616;51.420;6.788;2024-03-23T02:45:08;14.80;;;2.87;;
41927;SDS011;27616;51.420;6.788;2024-03-23T02:47:34;10.93;;;2.53;;
41927;SDS011;27616;51.420;6.788;2024-03-23T02:50:00;14.10;;;2.40;;
41927;SDS011;27616;51.420;6.788;2024-03-23T02:52:25;9.80;;;2.63;;
41927;SDS011;27616;51.420;6.788;2024-03-23T02:54:51;16.87;;;4.17;;
41927;SDS011;27616;51.420;6.788;2024-03-23T02:57:16;13.50;;;2.57;;
41927;SDS011;27616;51.420;6.788;2024-03-23T02:59:42;8.83;;;2.27;;
41927;SDS011;27616;51.420;6.788;2024-03-23T03:02:08;12.17;;;2.40;;
41927;SDS011;27616;51.420;6.788;2024-03-23T03:04:33;10.23;;;2.60;;
41927;SDS011;27616;51.420;6.788;2024-03-23T03:06:59;11.80;;;2.33;;
41927;SDS011;27616;51.420;6.788;2024-03-23T03:09:25;11.93;;;2.60;;
41927;SDS011;27616;51.420;6.788;2024-03-23T03:11:51;15.00;;;2.20;;
41927;SDS011;27616;51.420;6.788;2024-03-23T03:14:16;10.93;;;2.07;;
41927;SDS011;27616;51.420;6.788;2024-03-23T03:16:42;9.70;;;2.17;;
41927;SDS011;27616;51.420;6.788;2024-03-23T03:19:08;11.10;;;1.63;;
41927;SDS011;27616;51.420;6.788;2024-03-23T03:21:35;7.23;;;2.63;;
41927;SDS011;27616;51.420;6.788;2024-03-23T03:24:01;12.40;;;1.93;;
41927;SDS011;27616;51.420;6.788;2024-03-23T03:26:26;8.57;;;1.77;;
41927;SDS011;27616;51.420;6.788;2024-03-23T03:28:52;11.30;;;1.80;;
41927;SDS011;27616;51.420;6.788;2024-03-23T03:31:18;9.00;;;2.00;;
41927;SDS011;27616;51.420;6.788;2024-03-23T03:33:44;9.77;;;1.97;;
41927;SDS011;27616;51.420;6.788;2024-03-23T03:36:10;6.43;;;1.57;;
41927;SDS011;27616;51.420;6.788;2024-03-23T03:38:35;7.87;;;1.57;;
41927;SDS011;27616;51.420;6.788;2024-03-23T03:41:02;10.33;;;2.03;;
41927;SDS011;27616;51.420;6.788;2024-03-23T03:43:28;9.43;;;1.90;;
41927;SDS011;27616;51.420;6.788;2024-03-23T03:45:54;12.57;;;1.90;;
41927;SDS011;27616;51.420;6.788;2024-03-23T03:48:21;8.30;;;1.80;;
41927;SDS011;27616;51.420;6.788;2024-03-23T03:50:47;10.43;;;2.07;;
41927;SDS011;27616;51.420;6.788;2024-03-23T03:53:12;8.27;;;1.53;;
41927;SDS011;27616;51.420;6.788;2024-03-23T03:55:38;11.23;;;1.90;;
41927;SDS011;27616;51.420;6.788;2024-03-23T03:58:04;7.30;;;1.60;;
41927;SDS011;27616;51.420;6.788;2024-03-23T04:00:29;11.27;;;2.40;;
41927;SDS011;27616;51.420;6.788;2024-03-23T04:02:55;8.70;;;1.77;;
41927;SDS011;27616;51.420;6.788;2024-03-23T04:05:21;11.43;;;2.00;;
41927;SDS011;27616;51.420;6.788;2024-03-23T04:07:47;9.63;;;2.27;;
41927;SDS011;27616;51.420;6.788;2024-03-23T04:10:13;12.10;;;1.77;;
41927;SDS011;27616;51.420;6.788;2024-03-23T04:12:40;13.77;;;2.10;;
41927;SDS011;27616;51.420;6.788;2024-03-23T04:15:06;9.20;;;1.77;;
41927;SDS011;27616;51.420;6.788;2024-03-23T04:17:32;9.40;;;1.97;;
41927;SDS011;27616;51.420;6.788;2024-03-23T04:19:59;6.70;;;1.60;;
41927;SDS011;27616;51.420;6.788;2024-03-23T04:22:26;14.77;;;1.83;;
41927;SDS011;27616;51.420;6.788;2024-03-23T04:24:58;10.27;;;2.30;;
41927;SDS011;27616;51.420;6.788;2024-03-23T04:27:24;8.13;;;1.50;;
41927;SDS011;27616;51.420;6.788;2024-03-23T04:29:52;6.23;;;1.70;;
41927;SDS011;27616;51.420;6.788;2024-03-23T04:32:18;15.15;;;2.00;;
41927;SDS011;27616;51.420;6.788;2024-03-23T04:34:44;8.77;;;2.20;;
41927;SDS011;27616;51.420;6.788;2024-03-23T04:37:10;13.57;;;2.30;;
41927;SDS011;27616;51.420;6.788;2024-03-23T04:39:36;9.60;;;2.10;;
41927;SDS011;27616;51.420;6.788;2024-03-23T04:42:03;11.00;;;2.80;;
41927;SDS011;27616;51.420;6.788;2024-03-23T04:44:29;10.53;;;2.37;;
41927;SDS011;27616;51.420;6.788;2024-03-23T04:46:55;12.67;;;3.17;;
41927;SDS011;27616;51.420;6.788;2024-03-23T04:49:25;12.87;;;3.07;;
41927;SDS011;27616;51.420;6.788;2024-03-23T04:51:51;13.63;;;2.77;;
41927;SDS011;27616;51.420;6.788;2024-03-23T04:54:17;15.07;;;2.90;;
41927;SDS011;27616;51.420;6.788;2024-03-23T04:56:42;13.90;;;3.27;;
41927;SDS011;27616;51.420;6.788;2024-03-23T04:59:08;12.37;;;2.97;;
41927;SDS011;27616;51.420;6.788;2024-03-23T05:01:34;12.43;;;2.70;;
41927;SDS011;27616;51.420;6.788;2024-03-23T05:04:02;14.87;;;3.30;;
41927;SDS011;27616;51.420;6.788;2024-03-23T05:06:27;14.00;;;3.20;;
41927;SDS011;27616;51.420;6.788;2024-03-23T05:08:53;14.93;;;3.30;;
41927;SDS011;27616;51.420;6.788;2024-03-23T05:11:19;15.83;;;3.57;;
41927;SDS011;27616;51.420;6.788;2024-03-23T05:13:45;15.47;;;4.00;;
41927;SDS011;27616;51.420;6.788;2024-03-23T05:16:11;15.63;;;3.93;;
41927;SDS011;27616;51.420;6.788;2024-03-23T05:18:37;14.20;;;3.90;;
41927;SDS011;27616;51.420;6.788;2024-03-23T05:21:03;19.63;;;4.97;;
41927;SDS011;27616;51.420;6.788;2024-03-23T05:23:28;18.93;;;5.10;;
41927;SDS011;27616;51.420;6.788;2024-03-23T05:25:54;16.07;;;4.93;;
41927;SDS011;27616;51.420;6.788;2024-03-23T05:28:20;15.87;;;4.10;;
41927;SDS011;27616;51.420;6.788;2024-03-23T05:30:50;17.00;;;5.17;;
41927;SDS011;27616;51.420;6.788;2024-03-23T05:33:20;13.10;;;4.87;;
41927;SDS011;27616;51.420;6.788;2024-03-23T05:35:46;19.00;;;4.57;;
41927;SDS011;27616;51.420;6.788;2024-03-23T05:38:13;15.97;;;4.23;;
41927;SDS011;27616;51.420;6.788;2024-03-23T05:40:39;18.20;;;5.47;;
41927;SDS011;27616;51.420;6.788;2024-03-23T05:43:08;19.43;;;4.20;;
41927;SDS011;27616;51.420;6.788;2024-03-23T05:45:34;20.48;;;5.28;;
41927;SDS011;27616;51.420;6.788;2024-03-23T05:48:00;17.00;;;4.87;;
41927;SDS011;27616;51.420;6.788;2024-03-23T05:50:25;14.93;;;5.17;;
41927;SDS011;27616;51.420;6.788;2024-03-23T05:52:51;13.90;;;4.83;;
41927;SDS011;27616;51.420;6.788;2024-03-23T05:55:17;17.77;;;4.70;;
41927;SDS011;27616;51.420;6.788;2024-03-23T05:57:43;13.20;;;4.87;;
41927;SDS011;27616;51.420;6.788;2024-03-23T06:00:09;16.10;;;4.70;;
41927;SDS011;27616;51.420;6.788;2024-03-23T06:02:41;17.90;;;4.67;;
41927;SDS011;27616;51.420;6.788;2024-03-23T06:05:09;17.73;;;4.53;;
41927;SDS011;27616;51.420;6.788;2024-03-23T06:07:36;14.67;;;4.30;;
41927;SDS011;27616;51.420;6.788;2024-03-23T06:10:01;9.93;;;4.40;;
41927;SDS011;27616;51.420;6.788;2024-03-23T06:12:27;15.30;;;4.70;;
41927;SDS011;27616;51.420;6.788;2024-03-23T06:14:53;16.87;;;4.50;;
41927;SDS011;27616;51.420;6.788;2024-03-23T06:17:18;17.50;;;4.60;;
41927;SDS011;27616;51.420;6.788;2024-03-23T06:19:44;14.80;;;4.60;;
41927;SDS011;27616;51.420;6.788;2024-03-23T06:22:10;17.73;;;5.07;;
41927;SDS011;27616;51.420;6.788;2024-03-23T06:24:35;16.90;;;5.30;;
41927;SDS011;27616;51.420;6.788;2024-03-23T06:27:01;18.53;;;4.73;;
41927;SDS011;27616;51.420;6.788;2024-03-23T06:29:26;11.67;;;4.73;;
41927;SDS011;27616;51.420;6.788;2024-03-23T06:31:55;16.40;;;5.17;;
41927;SDS011;27616;51.420;6.788;2024-03-23T06:34:21;19.35;;;5.82;;
41927;SDS011;27616;51.420;6.788;2024-03-23T06:36:48;22.70;;;6.40;;
41927;SDS011;27616;51.420;6.788;2024-03-23T06:39:14;19.63;;;5.97;;
41927;SDS011;27616;51.420;6.788;2024-03-23T06:42:01;16.47;;;6.10;;
41927;SDS011;27616;51.420;6.788;2024-03-23T06:44:26;19.50;;;6.30;;
41927;SDS011;27616;51.420;6.788;2024-03-23T06:46:52;17.90;;;7.17;;
41927;SDS011;27616;51.420;6.788;2024-03-23T06:49:17;19.27;;;6.10;;
41927;SDS011;27616;51.420;6.788;2024-03-23T06:51:44;13.60;;;6.17;;
41927;SDS011;27616;51.420;6.788;2024-03-23T06:54:10;16.03;;;6.67;;
41927;SDS011;27616;51.420;6.788;2024-03-23T06:56:36;21.53;;;7.10;;
41927;SDS011;27616;51.420;6.788;2024-03-23T06:59:01;17.43;;;6.03;;
41927;SDS011;27616;51.420;6.788;2024-03-23T07:01:27;17.93;;;6.40;;
41927;SDS011;27616;51.420;6.788;2024-03-23T07:03:54;14.20;;;5.43;;
41927;SDS011;27616;51.420;6.788;2024-03-23T07:06:20;21.00;;;7.33;;
41927;SDS011;27616;51.420;6.788;2024-03-23T07:08:45;15.90;;;5.23;;
41927;SDS011;27616;51.420;6.788;2024-03-23T07:11:11;18.47;;;5.70;;
41927;SDS011;27616;51.420;6.788;2024-03-23T07:13:36;15.53;;;5.37;;
41927;SDS011;27616;51.420;6.788;2024-03-23T07:16:02;18.87;;;5.33;;
41927;SDS011;27616;51.420;6.788;2024-03-23T07:18:28;20.00;;;6.40;;
41927;SDS011;27616;51.420;6.788;2024-03-23T07:20:54;16.10;;;5.63;;
41927;SDS011;27616;51.420;6.788;2024-03-23T07:23:24;14.40;;;4.67;;
41927;SDS011;27616;51.420;6.788;2024-03-23T07:25:59;14.07;;;5.07;;
41927;SDS011;27616;51.420;6.788;2024-03-23T07:28:33;11.43;;;4.33;;
41927;SDS011;27616;51.420;6.788;2024-03-23T07:31:10;18.10;;;5.03;;
41927;SDS011;27616;51.420;6.788;2024-03-23T07:33:40;13.07;;;4.27;;
41927;SDS011;27616;51.420;6.788;2024-03-23T07:36:07;14.17;;;4.43;;
41927;SDS011;27616;51.420;6.788;2024-03-23T07:38:33;10.57;;;4.30;;
41927;SDS011;27616;51.420;6.788;2024-03-23T07:41:41;13.77;;;3.67;;
41927;SDS011;27616;51.420;6.788;2024-03-23T07:46:15;12.30;;;3.28;;
41927;SDS011;27616;51.420;6.788;2024-03-23T07:48:41;14.20;;;3.38;;
41927;SDS011;27616;51.420;6.788;2024-03-23T07:51:10;10.65;;;3.78;;
41927;SDS011;27616;51.420;6.788;2024-03-23T07:53:44;12.37;;;4.00;;
41927;SDS011;27616;51.420;6.788;2024-03-23T07:56:11;10.57;;;3.40;;
41927;SDS011;27616;51.420;6.788;2024-03-23T07:58:37;9.77;;;3.03;;
41927;SDS011;27616;51.420;6.788;2024-03-23T08:01:07;12.93;;;3.80;;
41927;SDS011;27616;51.420;6.788;2024-03-23T08:03:34;8.50;;;3.07;;
41927;SDS011;27616;51.420;6.788;2024-03-23T08:06:10;14.13;;;3.00;;
41927;SDS011;27616;51.420;6.788;2024-03-23T08:08:37;11.37;;;3.10;;
41927;SDS011;27616;51.420;6.788;2024-03-23T08:11:04;10.90;;;2.83;;
41927;SDS011;27616;51.420;6.788;2024-03-23T08:13:30;10.73;;;3.15;;
41927;SDS011;27616;51.420;6.788;2024-03-23T08:15:56;11.20;;;2.90;;
41927;SDS011;27616;51.420;6.788;2024-03-23T08:18:23;9.98;;;3.80;;
41927;SDS011;27616;51.420;6.788;2024-03-23T08:20:58;16.30;;;3.80;;
41927;SDS011;27616;51.420;6.788;2024-03-23T08:23:25;14.32;;;3.70;;
41927;SDS011;27616;51.420;6.788;2024-03-23T08:25:51;9.45;;;2.58;;
41927;SDS011;27616;51.420;6.788;2024-03-23T08:28:17;13.17;;;3.27;;
41927;SDS011;27616;51.420;6.788;2024-03-23T08:30:42;15.70;;;3.67;;
41927;SDS011;27616;51.420;6.788;2024-03-23T08:33:08;13.03;;;3.50;;
41927;SDS011;27616;51.420;6.788;2024-03-23T08:35:34;12.73;;;3.53;;
41927;SDS011;27616;51.420;6.788;2024-03-23T08:38:00;13.40;;;3.50;;
41927;SDS011;27616;51.420;6.788;2024-03-23T08:40:25;6.37;;;2.57;;
41927;SDS011;27616;51.420;6.788;2024-03-23T08:42:51;7.20;;;1.90;;
41927;SDS011;27616;51.420;6.788;2024-03-23T08:45:17;7.70;;;1.63;;
41927;SDS011;27616;51.420;6.788;2024-03-23T08:47:42;7.37;;;2.30;;
41927;SDS011;27616;51.420;6.788;2024-03-23T08:50:09;7.63;;;2.20;;
41927;SDS011;27616;51.420;6.788;2024-03-23T08:52:34;6.73;;;1.60;;
41927;SDS011;27616;51.420;6.788;2024-03-23T08:55:00;4.23;;;1.47;;
41927;SDS011;27616;51.420;6.788;2024-03-23T08:57:26;8.47;;;2.27;;
41927;SDS011;27616;51.420;6.788;2024-03-23T08:59:51;9.27;;;1.70;;
41927;SDS011;27616;51.420;6.788;2024-03-23T09:02:17;9.03;;;1.80;;
41927;SDS011;27616;51.420;6.788;2024-03-23T09:04:44;7.87;;;2.57;;
41927;SDS011;27616;51.420;6.788;2024-03-23T09:07:10;6.13;;;2.40;;
41927;SDS011;27616;51.420;6.788;2024-03-23T09:09:37;8.90;;;2.47;;
41927;SDS011;27616;51.420;6.788;2024-03-23T09:12:04;13.57;;;3.20;;
41927;SDS011;27616;51.420;6.788;2024-03-23T09:14:30;7.23;;;2.70;;
41927;SDS011;27616;51.420;6.788;2024-03-23T09:16:55;12.17;;;3.23;;
41927;SDS011;27616;51.420;6.788;2024-03-23T09:19:21;7.30;;;3.30;;
41927;SDS011;27616;51.420;6.788;2024-03-23T09:21:47;9.87;;;3.00;;
41927;SDS011;27616;51.420;6.788;2024-03-23T09:24:14;12.07;;;3.50;;
41927;SDS011;27616;51.420;6.788;2024-03-23T09:26:40;11.83;;;3.50;;
41927;SDS011;27616;51.420;6.788;2024-03-23T09:29:05;9.87;;;3.20;;
41927;SDS011;27616;51.420;6.788;2024-03-23T09:31:31;8.73;;;3.60;;
41927;SDS011;27616;51.420;6.788;2024-03-23T09:33:58;9.17;;;3.43;;
41927;SDS011;27616;51.420;6.788;2024-03-23T09:36:24;8.70;;;3.17;;
41927;SDS011;27616;51.420;6.788;2024-03-23T09:38:49;7.43;;;2.73;;
41927;SDS011;27616;51.420;6.788;2024-03-23T09:41:15;12.27;;;2.93;;
41927;SDS011;27616;51.420;6.788;2024-03-23T09:43:41;10.63;;;3.33;;
41927;SDS011;27616;51.420;6.788;2024-03-23T09:46:06;9.20;;;2.10;;
41927;SDS011;27616;51.420;6.788;2024-03-23T09:48:33;9.25;;;1.50;;
41927;SDS011;27616;51.420;6.788;2024-03-23T09:50:59;6.40;;;1.70;;
41927;SDS011;27616;51.420;6.788;2024-03-23T09:53:24;7.87;;;1.77;;
41927;SDS011;27616;51.420;6.788;2024-03-23T09:55:50;9.57;;;1.77;;
41927;SDS011;27616;51.420;6.788;2024-03-23T09:58:16;8.20;;;1.80;;
41927;SDS011;27616;51.420;6.788;2024-03-23T10:00:43;8.57;;;1.70;;
41927;SDS011;27616;51.420;6.788;2024-03-23T10:03:09;10.07;;;1.70;;
41927;SDS011;27616;51.420;6.788;2024-03-23T10:05:36;5.13;;;1.10;;
41927;SDS011;27616;51.420;6.788;2024-03-23T10:10:40;8.18;;;1.80;;
41927;SDS011;27616;51.420;6.788;2024-03-23T10:13:09;5.57;;;1.50;;
41927;SDS011;27616;51.420;6.788;2024-03-23T10:15:38;5.90;;;1.70;;
41927;SDS011;27616;51.420;6.788;2024-03-23T10:18:19;6.85;;;1.83;;
41927;SDS011;27616;51.420;6.788;2024-03-23T10:21:19;6.30;;;1.50;;
41927;SDS011;27616;51.420;6.788;2024-03-23T10:23:40;6.57;;;1.52;;
41927;SDS011;27616;51.420;6.788;2024-03-23T10:26:20;8.07;;;1.50;;
41927;SDS011;27616;51.420;6.788;2024-03-23T10:29:00;4.60;;;1.42;;
41927;SDS011;27616;51.420;6.788;2024-03-23T10:31:33;4.97;;;1.70;;
41927;SDS011;27616;51.420;6.788;2024-03-23T10:34:00;7.35;;;1.60;;
41927;SDS011;27616;51.420;6.788;2024-03-23T10:36:27;4.97;;;1.02;;
41927;SDS011;27616;51.420;6.788;2024-03-23T10:38:55;4.03;;;0.93;;
41927;SDS011;27616;51.420;6.788;2024-03-23T10:41:24;2.20;;;0.60;;
41927;SDS011;27616;51.420;6.788;2024-03-23T10:43:52;2.80;;;0.63;;
41927;SDS011;27616;51.420;6.788;2024-03-23T10:46:20;3.13;;;0.80;;
41927;SDS011;27616;51.420;6.788;2024-03-23T10:48:46;1.80;;;0.60;;
41927;SDS011;27616;51.420;6.788;2024-03-23T10:51:12;1.83;;;0.50;;
41927;SDS011;27616;51.420;6.788;2024-03-23T10:53:39;2.67;;;0.53;;
41927;SDS011;27616;51.420;6.788;2024-03-23T10:56:05;2.93;;;0.73;;
41927;SDS011;27616;51.420;6.788;2024-03-23T10:58:36;4.50;;;0.60;;
41927;SDS011;27616;51.420;6.788;2024-03-23T11:01:10;2.83;;;0.60;;
41927;SDS011;27616;51.420;6.788;2024-03-23T11:06:05;2.97;;;0.67;;
41927;SDS011;27616;51.420;6.788;2024-03-23T11:08:37;4.77;;;0.90;;
41927;SDS011;27616;51.420;6.788;2024-03-23T11:11:20;3.33;;;0.80;;
41927;SDS011;27616;51.420;6.788;2024-03-23T11:13:50;2.63;;;0.80;;
41927;SDS011;27616;51.420;6.788;2024-03-23T11:16:21;3.63;;;1.30;;
41927;SDS011;27616;51.420;6.788;2024-03-23T11:18:53;5.07;;;0.90;;
41927;SDS011;27616;51.420;6.788;2024-03-23T11:24:19;5.28;;;1.20;;
41927;SDS011;27616;51.420;6.788;2024-03-23T11:26:46;3.53;;;1.00;;
41927;SDS011;27616;51.420;6.788;2024-03-23T11:29:13;4.63;;;1.13;;
41927;SDS011;27616;51.420;6.788;2024-03-23T11:31:52;4.75;;;1.20;;
41927;SDS011;27616;51.420;6.788;2024-03-23T11:34:19;4.75;;;1.10;;
41927;SDS011;27616;51.420;6.788;2024-03-23T11:36:45;8.90;;;1.52;;
41927;SDS011;27616;51.420;6.788;2024-03-23T11:39:15;6.15;;;1.52;;
41927;SDS011;27616;51.420;6.788;2024-03-23T11:41:49;6.00;;;1.23;;
41927;SDS011;27616;51.420;6.788;2024-03-23T11:44:21;4.97;;;1.30;;
41927;SDS011;27616;51.420;6.788;2024-03-23T11:46:48;5.22;;;1.10;;
41927;SDS011;27616;51.420;6.788;2024-03-23T11:49:21;5.10;;;1.15;;
41927;SDS011;27616;51.420;6.788;2024-03-23T11:51:54;3.65;;;1.00;;
41927;SDS011;27616;51.420;6.788;2024-03-23T11:54:22;2.80;;;0.90;;
41927;SDS011;27616;51.420;6.788;2024-03-23T11:59:31;4.38;;;0.80;;
41927;SDS011;27616;51.420;6.788;2024-03-23T12:02:11;4.25;;;1.05;;
41927;SDS011;27616;51.420;6.788;2024-03-23T12:04:40;2.63;;;0.80;;
41927;SDS011;27616;51.420;6.788;2024-03-23T12:09:44;6.37;;;1.23;;
41927;SDS011;27616;51.420;6.788;2024-03-23T12:14:42;3.37;;;1.23;;
41927;SDS011;27616;51.420;6.788;2024-03-23T12:17:11;5.30;;;1.30;;
41927;SDS011;27616;51.420;6.788;2024-03-23T12:19:40;5.83;;;1.37;;
41927;SDS011;27616;51.420;6.788;2024-03-23T12:22:07;4.53;;;1.25;;
41927;SDS011;27616;51.420;6.788;2024-03-23T12:24:34;4.63;;;1.40;;
41927;SDS011;27616;51.420;6.788;2024-03-23T12:27:01;4.63;;;1.40;;
41927;SDS011;27616;51.420;6.788;2024-03-23T12:29:28;6.90;;;1.57;;
41927;SDS011;27616;51.420;6.788;2024-03-23T12:31:55;4.33;;;1.20;;
41927;SDS011;27616;51.420;6.788;2024-03-23T12:34:21;3.90;;;1.00;;
41927;SDS011;27616;51.420;6.788;2024-03-23T12:36:46;4.27;;;1.00;;
41927;SDS011;27616;51.420;6.788;2024-03-23T12:39:12;7.07;;;1.20;;
41927;SDS011;27616;51.420;6.788;2024-03-23T12:41:37;5.70;;;1.43;;
41927;SDS011;27616;51.420;6.788;2024-03-23T12:44:03;6.37;;;1.60;;
41927;SDS011;27616;51.420;6.788;2024-03-23T12:46:28;4.83;;;1.00;;
41927;SDS011;27616;51.420;6.788;2024-03-23T12:48:54;3.83;;;1.37;;
41927;SDS011;27616;51.420;6.788;2024-03-23T12:51:20;4.73;;;0.90;;
41927;SDS011;27616;51.420;6.788;2024-03-23T12:53:46;5.07;;;0.90;;
41927;SDS011;27616;51.420;6.788;2024-03-23T12:56:11;3.10;;;0.90;;
41927;SDS011;27616;51.420;6.788;2024-03-23T12:58:37;2.27;;;0.83;;
41927;SDS011;27616;51.420;6.788;2024-03-23T13:01:03;1.77;;;0.60;;
41927;SDS011;27616;51.420;6.788;2024-03-23T13:03:28;5.13;;;0.80;;
41927;SDS011;27616;51.420;6.788;2024-03-23T13:05:54;2.17;;;0.70;;
41927;SDS011;27616;51.420;6.788;2024-03-23T13:08:20;4.17;;;0.90;;
41927;SDS011;27616;51.420;6.788;2024-03-23T13:10:45;3.80;;;1.03;;
41927;SDS011;27616;51.420;6.788;2024-03-23T13:13:12;5.07;;;1.00;;
41927;SDS011;27616;51.420;6.788;2024-03-23T13:15:37;4.63;;;1.20;;
41927;SDS011;27616;51.420;6.788;2024-03-23T13:18:03;3.93;;;1.07;;
41927;SDS011;27616;51.420;6.788;2024-03-23T13:20:29;3.50;;;1.00;;
41927;SDS011;27616;51.420;6.788;2024-03-23T13:22:54;5.07;;;1.03;;
41927;SDS011;27616;51.420;6.788;2024-03-23T13:25:20;4.27;;;1.07;;
41927;SDS011;27616;51.420;6.788;2024-03-23T13:27:45;7.70;;;1.17;;
41927;SDS011;27616;51.420;6.788;2024-03-23T13:30:12;5.77;;;1.33;;
41927;SDS011;27616;51.420;6.788;2024-03-23T13:32:37;4.27;;;1.00;;
41927;SDS011;27616;51.420;6.788;2024-03-23T13:35:03;8.30;;;1.10;;
41927;SDS011;27616;51.420;6.788;2024-03-23T13:37:31;3.77;;;0.73;;
41927;SDS011;27616;51.420;6.788;2024-03-23T13:39:57;5.50;;;1.07;;
41927;SDS011;27616;51.420;6.788;2024-03-23T13:42:23;2.60;;;0.63;;
41927;SDS011;27616;51.420;6.788;2024-03-23T13:44:51;6.47;;;0.90;;
41927;SDS011;27616;51.420;6.788;2024-03-23T13:47:16;6.63;;;0.83;;
41927;SDS011;27616;51.420;6.788;2024-03-23T13:49:42;5.17;;;0.80;;
41927;SDS011;27616;51.420;6.788;2024-03-23T13:52:07;2.20;;;0.63;;
41927;SDS011;27616;51.420;6.788;2024-03-23T13:54:33;3.33;;;0.87;;
41927;SDS011;27616;51.420;6.788;2024-03-23T13:56:58;4.93;;;0.60;;
41927;SDS011;27616;51.420;6.788;2024-03-23T13:59:24;4.23;;;0.70;;
41927;SDS011;27616;51.420;6.788;2024-03-23T14:01:50;4.80;;;0.90;;
41927;SDS011;27616;51.420;6.788;2024-03-23T14:04:16;5.73;;;0.90;;
41927;SDS011;27616;51.420;6.788;2024-03-23T14:06:42;6.47;;;1.43;;
41927;SDS011;27616;51.420;6.788;2024-03-23T14:09:11;5.38;;;0.98;;
41927;SDS011;27616;51.420;6.788;2024-03-23T14:11:37;4.60;;;1.00;;
41927;SDS011;27616;51.420;6.788;2024-03-23T14:14:03;6.10;;;1.10;;
41927;SDS011;27616;51.420;6.788;2024-03-23T14:16:29;2.80;;;0.67;;
41927;SDS011;27616;51.420;6.788;2024-03-23T14:18:56;5.07;;;1.30;;
41927;SDS011;27616;51.420;6.788;2024-03-23T14:21:21;2.33;;;0.80;;
41927;SDS011;27616;51.420;6.788;2024-03-23T14:23:47;3.37;;;0.93;;
41927;SDS011;27616;51.420;6.788;2024-03-23T14:26:13;3.30;;;0.77;;
41927;SDS011;27616;51.420;6.788;2024-03-23T14:28:39;4.43;;;1.00;;
41927;SDS011;27616;51.420;6.788;2024-03-23T14:31:04;3.40;;;0.70;;
41927;SDS011;27616;51.420;6.788;2024-03-23T14:33:35;4.47;;;0.90;;
41927;SDS011;27616;51.420;6.788;2024-03-23T14:36:11;1.77;;;0.80;;
41927;SDS011;27616;51.420;6.788;2024-03-23T14:38:39;2.33;;;0.90;;
41927;SDS011;27616;51.420;6.788;2024-03-23T14:41:05;4.17;;;1.00;;
41927;SDS011;27616;51.420;6.788;2024-03-23T14:43:31;5.20;;;0.80;;
41927;SDS011;27616;51.420;6.788;2024-03-23T14:48:32;4.20;;;0.90;;
41927;SDS011;27616;51.420;6.788;2024-03-23T14:50:58;4.10;;;1.33;;
41927;SDS011;27616;51.420;6.788;2024-03-23T14:53:25;2.30;;;0.63;;
41927;SDS011;27616;51.420;6.788;2024-03-23T14:58:20;7.97;;;1.13;;
41927;SDS011;27616;51.420;6.788;2024-03-23T15:00:46;1.93;;;0.70;;
41927;SDS011;27616;51.420;6.788;2024-03-23T15:03:11;6.00;;;0.90;;
41927;SDS011;27616;51.420;6.788;2024-03-23T15:05:37;5.80;;;1.47;;
41927;SDS011;27616;51.420;6.788;2024-03-23T15:08:03;5.63;;;1.00;;
41927;SDS011;27616;51.420;6.788;2024-03-23T15:10:28;4.47;;;0.87;;
41927;SDS011;27616;51.420;6.788;2024-03-23T15:12:54;4.40;;;0.90;;
41927;SDS011;27616;51.420;6.788;2024-03-23T15:15:20;3.80;;;0.83;;
41927;SDS011;27616;51.420;6.788;2024-03-23T15:17:45;4.03;;;0.80;;
41927;SDS011;27616;51.420;6.788;2024-03-23T15:20:11;3.00;;;1.00;;
41927;SDS011;27616;51.420;6.788;2024-03-23T15:22:37;5.40;;;1.27;;
41927;SDS011;27616;51.420;6.788;2024-03-23T15:25:02;4.17;;;0.93;;
41927;SDS011;27616;51.420;6.788;2024-03-23T15:27:28;3.57;;;0.97;;
41927;SDS011;27616;51.420;6.788;2024-03-23T15:29:55;4.50;;;1.57;;
41927;SDS011;27616;51.420;6.788;2024-03-23T15:32:22;3.42;;;0.93;;
41927;SDS011;27616;51.420;6.788;2024-03-23T15:34:48;4.03;;;1.03;;
41927;SDS011;27616;51.420;6.788;2024-03-23T15:37:13;1.57;;;0.70;;
41927;SDS011;27616;51.420;6.788;2024-03-23T15:39:40;8.80;;;1.20;;
41927;SDS011;27616;51.420;6.788;2024-03-23T15:42:06;2.90;;;0.60;;
41927;SDS011;27616;51.420;6.788;2024-03-23T15:44:32;3.57;;;1.00;;
41927;SDS011;27616;51.420;6.788;2024-03-23T15:46:58;4.23;;;1.00;;
41927;SDS011;27616;51.420;6.788;2024-03-23T15:49:24;4.33;;;0.87;;
41927;SDS011;27616;51.420;6.788;2024-03-23T15:51:49;4.43;;;1.00;;
41927;SDS011;27616;51.420;6.788;2024-03-23T15:54:15;4.83;;;0.80;;
41927;SDS011;27616;51.420;6.788;2024-03-23T15:56:40;4.20;;;1.00;;
41927;SDS011;27616;51.420;6.788;2024-03-23T15:59:06;7.37;;;1.00;;